Time;durP1;ratioP1;P1;durP2;ratioP2;P2;SDS_P1;SDS_P2;PMS_P1;PMS_P2;Temp;Humidity;BMP_temperature;BMP_pressure;BME280_temperature;BME280_humidity;BME280_pressure;Samples;Min_cycle;Max_cycle;Signal;HPM_P1;HPM_P2
2021/06/05 00:02:09;;;;;;;;;;;19.50;99.90;;;;;;5032791;28;20284;-76
2021/06/05 00:04:34;;;;;;;;;;;19.50;99.90;;;;;;5033072;28;19905;-76
2021/06/05 00:07:00;;;;;;;;;;;19.40;99.90;;;;;;5031875;28;19948;-76
2021/06/05 00:09:25;;;;;;;;;;;19.30;99.90;;;;;;5049928;28;20538;-76
2021/06/05 00:11:51;;;;;;;;;;;19.30;99.90;;;;;;5047875;28;20368;-76
2021/06/05 00:14:16;;;;;;;;;;;19.30;99.90;;;;;;5033712;28;19913;-76
2021/06/05 00:16:43;;;;;;;;;;;19.30;99.90;;;;;;5050648;28;19905;-76
2021/06/05 00:19:13;;;;;;;;;;;19.30;99.90;;;;;;5036864;28;19905;-76
2021/06/05 00:21:39;;;;;;;;;;;19.30;99.90;;;;;;5066415;28;20021;-76
2021/06/05 00:24:05;;;;;;;;;;;19.30;99.90;;;;;;5052154;28;20365;-76
2021/06/05 00:26:30;;;;;;;;;;;19.30;99.90;;;;;;5039463;28;19913;-76
2021/06/05 00:28:56;;;;;;;;;;;19.20;99.90;;;;;;5037474;28;19924;-76
2021/06/05 00:31:21;;;;;;;;;;;19.10;99.90;;;;;;5036057;28;19962;-76
2021/06/05 00:33:47;;;;;;;;;;;19.20;99.90;;;;;;5037266;28;20357;-76
2021/06/05 00:36:12;;;;;;;;;;;19.20;99.90;;;;;;5037782;28;19913;-77
2021/06/05 00:38:38;;;;;;;;;;;19.20;99.90;;;;;;5038180;28;19905;-76
2021/06/05 00:41:05;;;;;;;;;;;19.30;99.90;;;;;;5039889;28;19909;-76
2021/06/05 00:43:34;;;;;;;;;;;19.40;99.90;;;;;;5036646;28;19996;-77
2021/06/05 00:46:00;;;;;;;;;;;19.40;99.90;;;;;;5037205;28;19905;-76
2021/06/05 00:48:26;;;;;;;;;;;19.40;99.90;;;;;;5035842;28;19920;-76
2021/06/05 00:50:52;;;;;;;;;;;19.50;99.90;;;;;;5036847;28;19944;-76
2021/06/05 00:53:19;;;;;;;;;;;19.50;99.90;;;;;;5034987;28;19905;-76
2021/06/05 00:55:46;;;;;;;;;;;19.50;99.90;;;;;;5038518;28;20325;-77
2021/06/05 00:58:11;;;;;;;;;;;19.60;99.90;;;;;;5038508;28;20376;-76
2021/06/05 01:00:42;;;;;;;;;;;19.60;99.90;;;;;;5036222;28;19913;-77
2021/06/05 01:03:08;;;;;;;;;;;19.60;99.90;;;;;;5037142;28;19905;-77
2021/06/05 01:05:35;;;;;;;;;;;19.60;99.90;;;;;;5051163;28;19928;-77
2021/06/05 01:08:12;;;;;;;;;;;19.60;99.90;;;;;;5035386;28;19916;-77
2021/06/05 01:10:40;;;;;;;;;;;19.60;99.90;;;;;;5048570;28;20324;-77
2021/06/05 01:13:08;;;;;;;;;;;19.60;99.90;;;;;;5040489;28;19995;-77
2021/06/05 01:15:54;;;;;;;;;;;19.60;99.90;;;;;;5037504;28;19905;-76
2021/06/05 01:18:41;;;;;;;;;;;19.60;99.90;;;;;;5038761;28;19912;-76
2021/06/05 01:21:09;;;;;;;;;;;19.60;99.90;;;;;;5065059;28;19916;-77
2021/06/05 01:23:42;;;;;;;;;;;19.60;99.90;;;;;;5043189;28;20345;-77
2021/06/05 01:26:18;;;;;;;;;;;19.60;99.90;;;;;;5034625;28;19950;-77
2021/06/05 01:28:47;;;;;;;;;;;19.60;99.90;;;;;;5036597;28;19955;-77
2021/06/05 01:31:15;;;;;;;;;;;19.50;99.90;;;;;;5034938;28;19999;-76
2021/06/05 01:33:41;;;;;;;;;;;19.50;99.90;;;;;;5034861;28;20004;-77
2021/06/05 01:36:08;;;;;;;;;;;19.40;99.90;;;;;;5034101;28;19932;-76
2021/06/05 01:38:35;;;;;;;;;;;19.40;99.90;;;;;;5036631;28;20392;-76
2021/06/05 01:41:01;;;;;;;;;;;19.50;99.90;;;;;;5036319;28;19966;-77
2021/06/05 01:43:27;;;;;;;;;;;19.50;99.90;;;;;;5037049;28;20424;-76
2021/06/05 01:45:53;;;;;;;;;;;19.60;99.90;;;;;;5036256;28;19905;-77
2021/06/05 01:48:19;;;;;;;;;;;19.60;99.90;;;;;;5034690;28;20292;-77
2021/06/05 01:50:45;;;;;;;;;;;19.60;99.90;;;;;;5037500;28;19905;-77
2021/06/05 01:53:14;;;;;;;;;;;19.50;99.90;;;;;;5035215;28;19990;-77
2021/06/05 01:55:45;;;;;;;;;;;19.50;99.90;;;;;;5048495;28;20273;-77
2021/06/05 01:58:13;;;;;;;;;;;19.30;99.90;;;;;;5041373;28;19905;-77
2021/06/05 02:00:41;;;;;;;;;;;19.30;99.90;;;;;;5036592;28;19909;-77
2021/06/05 02:03:07;;;;;;;;;;;19.30;99.90;;;;;;5034709;28;19916;-77
2021/06/05 02:05:33;;;;;;;;;;;19.30;99.90;;;;;;5034464;28;19905;-77
2021/06/05 02:07:58;;;;;;;;;;;19.30;99.90;;;;;;5035857;28;19916;-77
2021/06/05 02:10:25;;;;;;;;;;;19.30;99.90;;;;;;5033559;28;19905;-77
2021/06/05 02:12:52;;;;;;;;;;;19.20;99.90;;;;;;5038177;28;19905;-77
2021/06/05 02:15:26;;;;;;;;;;;19.20;99.90;;;;;;5047088;28;20329;-77
2021/06/05 02:17:52;;;;;;;;;;;19.10;99.90;;;;;;5038591;28;19963;-77
2021/06/05 02:20:29;;;;;;;;;;;19.10;99.90;;;;;;5035777;28;19905;-77
2021/06/05 02:22:57;;;;;;;;;;;19.00;99.90;;;;;;5036001;28;20379;-77
2021/06/05 02:25:23;;;;;;;;;;;19.00;99.90;;;;;;5033651;28;19909;-77
2021/06/05 02:27:50;;;;;;;;;;;18.90;99.90;;;;;;5033120;28;20364;-77
2021/06/05 02:30:18;;;;;;;;;;;18.90;99.90;;;;;;5036450;28;19913;-77
2021/06/05 02:32:43;;;;;;;;;;;18.90;99.90;;;;;;5033623;28;20437;-77
2021/06/05 02:35:11;;;;;;;;;;;18.90;99.90;;;;;;5034636;28;19948;-77
2021/06/05 02:37:37;;;;;;;;;;;19.00;99.90;;;;;;5036781;28;19909;-77
2021/06/05 02:40:07;;;;;;;;;;;19.00;99.90;;;;;;5036187;28;19911;-77
2021/06/05 02:42:32;;;;;;;;;;;18.90;99.90;;;;;;5036407;28;19913;-77
2021/06/05 02:44:59;;;;;;;;;;;18.80;99.90;;;;;;5035740;28;19912;-77
2021/06/05 02:47:26;;;;;;;;;;;18.70;99.90;;;;;;5034736;28;19928;-77
2021/06/05 02:49:51;;;;;;;;;;;18.70;99.90;;;;;;5033820;28;19905;-77
2021/06/05 02:52:34;;;;;;;;;;;18.60;99.90;;;;;;5033111;28;19909;-77
2021/06/05 02:55:03;;;;;;;;;;;18.60;99.90;;;;;;5036535;28;20284;-77
2021/06/05 02:57:30;;;;;;;;;;;18.40;99.90;;;;;;5037862;28;19905;-77
2021/06/05 02:59:55;;;;;;;;;;;18.40;99.90;;;;;;5039930;28;20356;-76
2021/06/05 03:02:21;;;;;;;;;;;18.40;99.90;;;;;;5033911;28;19912;-76
2021/06/05 03:04:47;;;;;;;;;;;18.30;99.90;;;;;;5034671;28;19916;-76
2021/06/05 03:07:13;;;;;;;;;;;18.30;99.90;;;;;;5033090;28;20277;-76
2021/06/05 03:09:38;;;;;;;;;;;18.40;99.90;;;;;;5032855;28;19913;-76
2021/06/05 03:12:05;;;;;;;;;;;18.30;99.90;;;;;;5035036;28;19905;-76
2021/06/05 03:14:31;;;;;;;;;;;18.30;99.90;;;;;;5036506;28;19911;-76
2021/06/05 03:16:56;;;;;;;;;;;18.30;99.90;;;;;;5042814;28;19909;-76
2021/06/05 03:19:22;;;;;;;;;;;18.30;99.90;;;;;;5034936;28;20419;-77
2021/06/05 03:21:47;;;;;;;;;;;18.20;99.90;;;;;;5036949;28;19952;-76
2021/06/05 03:24:13;;;;;;;;;;;18.20;99.90;;;;;;5033896;28;19908;-76
2021/06/05 03:26:38;;;;;;;;;;;18.20;99.90;;;;;;5033972;28;19996;-76
2021/06/05 03:29:04;;;;;;;;;;;18.20;99.90;;;;;;5035820;28;19909;-76
2021/06/05 03:31:29;;;;;;;;;;;18.20;99.90;;;;;;5034429;28;19992;-76
2021/06/05 03:33:55;;;;;;;;;;;18.30;99.90;;;;;;5034112;28;19999;-76
2021/06/05 03:36:22;;;;;;;;;;;18.20;99.90;;;;;;5048482;28;19920;-76
2021/06/05 03:38:48;;;;;;;;;;;18.20;99.90;;;;;;5037554;28;19916;-76
2021/06/05 03:41:14;;;;;;;;;;;18.20;99.90;;;;;;5035666;28;19905;-76
2021/06/05 03:43:40;;;;;;;;;;;18.20;99.90;;;;;;5033694;28;19909;-76
2021/06/05 03:46:05;;;;;;;;;;;18.20;99.90;;;;;;5034682;28;19927;-76
2021/06/05 03:48:31;;;;;;;;;;;18.20;99.90;;;;;;5033930;28;20010;-76
2021/06/05 03:50:56;;;;;;;;;;;18.20;99.90;;;;;;5032458;28;19909;-76
2021/06/05 03:53:23;;;;;;;;;;;18.20;99.90;;;;;;5031475;28;20246;-76
2021/06/05 03:55:49;;;;;;;;;;;18.20;99.90;;;;;;5036235;28;19905;-76
2021/06/05 03:58:15;;;;;;;;;;;18.20;99.90;;;;;;5035387;28;19951;-76
2021/06/05 04:00:42;;;;;;;;;;;18.20;99.90;;;;;;5034816;28;19935;-76
2021/06/05 04:03:07;;;;;;;;;;;18.20;99.90;;;;;;5034204;28;20272;-76
2021/06/05 04:05:33;;;;;;;;;;;18.10;99.90;;;;;;5033794;28;20403;-76
2021/06/05 04:07:59;;;;;;;;;;;18.20;99.90;;;;;;5033837;28;19928;-76
2021/06/05 04:10:25;;;;;;;;;;;18.20;99.90;;;;;;5033049;28;19909;-76
2021/06/05 04:12:52;;;;;;;;;;;18.10;99.90;;;;;;5034918;28;19909;-76
2021/06/05 04:15:20;;;;;;;;;;;18.20;99.90;;;;;;5034848;28;19905;-76
2021/06/05 04:17:46;;;;;;;;;;;18.20;99.90;;;;;;5036313;28;19906;-76
2021/06/05 04:20:13;;;;;;;;;;;18.20;99.90;;;;;;5034719;28;19912;-75
2021/06/05 04:22:39;;;;;;;;;;;18.20;99.90;;;;;;5047971;28;20051;-76
2021/06/05 04:25:05;;;;;;;;;;;18.20;99.90;;;;;;5047932;28;19955;-76
2021/06/05 04:27:30;;;;;;;;;;;18.20;99.90;;;;;;5031570;28;20007;-76
2021/06/05 04:29:56;;;;;;;;;;;18.20;99.90;;;;;;5032387;28;19909;-75
2021/06/05 04:32:22;;;;;;;;;;;18.20;99.90;;;;;;5034564;28;19912;-76
2021/06/05 04:34:47;;;;;;;;;;;18.30;99.90;;;;;;5034141;28;20375;-76
2021/06/05 04:37:12;;;;;;;;;;;18.20;99.90;;;;;;5032786;28;19913;-76
2021/06/05 04:39:40;;;;;;;;;;;18.30;99.90;;;;;;5033728;28;19905;-76
2021/06/05 04:42:06;;;;;;;;;;;18.20;99.90;;;;;;5048743;28;19904;-76
2021/06/05 04:44:32;;;;;;;;;;;18.20;99.90;;;;;;5038528;28;19905;-76
2021/06/05 04:46:57;;;;;;;;;;;18.20;99.90;;;;;;5033649;28;19913;-75
2021/06/05 04:49:23;;;;;;;;;;;18.20;99.90;;;;;;5033032;28;19913;-85
2021/06/05 04:51:48;;;;;;;;;;;18.20;99.90;;;;;;5031894;28;19905;-86
2021/06/05 04:54:13;;;;;;;;;;;18.20;99.90;;;;;;5032739;28;19919;-86
2021/06/05 04:56:43;;;;;;;;;;;18.20;99.90;;;;;;5037625;28;19928;-86
2021/06/05 04:59:10;;;;;;;;;;;18.20;99.90;;;;;;5049087;28;19905;-85
2021/06/05 05:01:35;;;;;;;;;;;18.20;99.90;;;;;;5044073;28;19909;-85
2021/06/05 05:04:01;;;;;;;;;;;18.20;99.90;;;;;;5036157;28;19996;-85
2021/06/05 05:06:27;;;;;;;;;;;18.20;99.90;;;;;;5036719;28;19971;-86
2021/06/05 05:08:53;;;;;;;;;;;18.20;99.90;;;;;;5036792;28;19980;-83
2021/06/05 05:11:19;;;;;;;;;;;18.20;99.90;;;;;;5041411;28;19970;-86
2021/06/05 05:13:45;;;;;;;;;;;18.20;99.90;;;;;;5035222;28;19999;-85
2021/06/05 05:16:10;;;;;;;;;;;18.20;99.90;;;;;;5043798;28;19971;-85
2021/06/05 05:18:38;;;;;;;;;;;18.20;99.90;;;;;;5054868;28;19908;-86
2021/06/05 05:21:04;;;;;;;;;;;18.20;99.90;;;;;;5054927;28;19911;-85
2021/06/05 05:23:29;;;;;;;;;;;18.20;99.90;;;;;;5056350;28;19913;-85
2021/06/05 05:25:56;;;;;;;;;;;18.30;99.90;;;;;;5055188;28;19905;-85
2021/06/05 05:28:22;;;;;;;;;;;18.40;99.90;;;;;;5056416;28;20023;-86
2021/06/05 05:30:50;;;;;;;;;;;18.40;99.90;;;;;;5055189;28;19948;-85
2021/06/05 05:33:16;;;;;;;;;;;18.50;99.90;;;;;;5055066;28;19931;-85
2021/06/05 05:35:41;;;;;;;;;;;18.50;99.90;;;;;;5056091;28;19917;-85
2021/06/05 05:38:08;;;;;;;;;;;18.50;99.90;;;;;;5055157;28;19909;-84
2021/06/05 05:40:35;;;;;;;;;;;18.50;99.90;;;;;;5054914;28;20348;-84
2021/06/05 05:43:00;;;;;;;;;;;18.60;99.90;;;;;;5056157;28;19996;-84
2021/06/05 05:45:26;;;;;;;;;;;18.60;99.90;;;;;;5055360;28;20046;-84
2021/06/05 05:47:51;;;;;;;;;;;18.60;99.90;;;;;;5054199;28;20273;-84
2021/06/05 05:50:18;;;;;;;;;;;18.40;99.90;;;;;;5055984;28;19908;-85
2021/06/05 05:52:44;;;;;;;;;;;18.40;99.90;;;;;;5055916;28;19912;-85
2021/06/05 05:55:10;;;;;;;;;;;18.40;99.90;;;;;;5054533;28;20280;-85
2021/06/05 05:57:35;;;;;;;;;;;18.40;99.90;;;;;;5053662;28;19905;-83
2021/06/05 06:00:01;;;;;;;;;;;18.50;99.90;;;;;;5052969;28;19913;-84
2021/06/05 06:02:27;;;;;;;;;;;18.40;99.90;;;;;;5053629;28;19915;-85
2021/06/05 06:04:52;;;;;;;;;;;18.40;99.90;;;;;;5053498;28;19908;-84
2021/06/05 06:07:18;;;;;;;;;;;18.50;99.90;;;;;;5054520;28;19909;-84
2021/06/05 06:09:43;;;;;;;;;;;18.50;99.90;;;;;;5054611;28;19904;-84
2021/06/05 06:12:09;;;;;;;;;;;18.50;99.90;;;;;;5054704;28;19905;-84
2021/06/05 06:14:34;;;;;;;;;;;18.50;99.90;;;;;;5053978;28;19931;-85
2021/06/05 06:17:00;;;;;;;;;;;18.50;99.90;;;;;;5054152;28;19909;-84
2021/06/05 06:19:25;;;;;;;;;;;18.50;99.90;;;;;;5054460;28;19958;-85
2021/06/05 06:21:51;;;;;;;;;;;18.60;99.90;;;;;;5054862;28;19912;-85
2021/06/05 06:24:17;;;;;;;;;;;18.60;99.90;;;;;;5053572;28;19916;-84
2021/06/05 06:26:42;;;;;;;;;;;18.70;99.90;;;;;;5054011;28;19999;-85
2021/06/05 06:29:19;;;;;;;;;;;18.70;99.90;;;;;;5055194;28;19908;-85
2021/06/05 06:31:46;;;;;;;;;;;18.70;99.90;;;;;;5054765;28;19909;-85
2021/06/05 06:34:12;;;;;;;;;;;18.80;99.90;;;;;;5053099;28;19908;-85
2021/06/05 06:36:42;;;;;;;;;;;18.80;99.90;;;;;;5053248;28;20482;-85
2021/06/05 06:39:08;;;;;;;;;;;18.80;99.90;;;;;;5053300;28;19957;-85
2021/06/05 06:41:34;;;;;;;;;;;18.80;99.90;;;;;;5053244;28;19991;-85
2021/06/05 06:44:01;;;;;;;;;;;18.80;99.90;;;;;;5054374;28;19921;-85
2021/06/05 06:46:28;;;;;;;;;;;18.80;99.90;;;;;;5054449;28;19974;-85
2021/06/05 06:48:55;;;;;;;;;;;18.90;99.90;;;;;;5054426;28;20365;-85
2021/06/05 06:51:21;;;;;;;;;;;18.80;99.90;;;;;;5053144;28;19908;-85
2021/06/05 06:53:47;;;;;;;;;;;18.80;99.90;;;;;;5052968;28;19934;-85
2021/06/05 06:56:13;;;;;;;;;;;18.80;99.90;;;;;;5052946;28;19940;-85
2021/06/05 06:58:38;;;;;;;;;;;18.80;99.90;;;;;;5053561;28;19915;-85
2021/06/05 07:01:04;;;;;;;;;;;18.80;99.90;;;;;;5054295;28;20356;-85
2021/06/05 07:03:30;;;;;;;;;;;18.70;99.90;;;;;;5052819;28;19947;-85
2021/06/05 07:05:55;;;;;;;;;;;18.70;99.90;;;;;;5051990;28;19944;-85
2021/06/05 07:08:23;;;;;;;;;;;18.70;99.90;;;;;;5054285;28;20265;-85
2021/06/05 07:10:50;;;;;;;;;;;18.70;99.90;;;;;;5046959;28;20371;-85
2021/06/05 07:13:15;;;;;;;;;;;18.70;99.90;;;;;;5052786;28;19928;-84
2021/06/05 07:15:41;;;;;;;;;;;18.70;99.90;;;;;;5054138;28;20356;-85
2021/06/05 07:18:07;;;;;;;;;;;18.70;99.90;;;;;;5054346;28;20427;-85
2021/06/05 07:20:33;;;;;;;;;;;18.80;99.90;;;;;;5052914;28;19995;-85
2021/06/05 07:22:59;;;;;;;;;;;18.80;99.90;;;;;;5054030;28;20050;-85
2021/06/05 07:25:27;;;;;;;;;;;18.90;99.90;;;;;;5052492;28;19909;-85
2021/06/05 07:27:53;;;;;;;;;;;19.00;99.90;;;;;;5052744;28;19909;-85
2021/06/05 07:30:18;;;;;;;;;;;19.00;99.90;;;;;;5051936;28;20264;-85
2021/06/05 07:32:43;;;;;;;;;;;19.00;99.90;;;;;;5052794;28;20369;-85
2021/06/05 07:35:09;;;;;;;;;;;19.10;99.90;;;;;;5053772;28;19919;-85
2021/06/05 07:37:35;;;;;;;;;;;19.10;99.90;;;;;;5050892;28;19912;-85
2021/06/05 07:40:07;;;;;;;;;;;19.10;99.90;;;;;;5050805;28;19904;-85
2021/06/05 07:42:34;;;;;;;;;;;19.10;99.90;;;;;;5053655;28;19912;-85
2021/06/05 07:44:59;;;;;;;;;;;19.10;99.90;;;;;;5052568;28;19905;-85
2021/06/05 07:47:25;;;;;;;;;;;19.10;99.90;;;;;;5053690;28;19920;-85
2021/06/05 07:49:52;;;;;;;;;;;19.10;99.90;;;;;;5052597;28;19967;-85
2021/06/05 07:52:23;;;;;;;;;;;19.10;99.90;;;;;;5053400;28;19913;-85
2021/06/05 07:54:49;;;;;;;;;;;19.20;99.90;;;;;;5049714;28;19947;-85
2021/06/05 07:57:14;;;;;;;;;;;19.20;99.90;;;;;;5053236;28;19986;-85
2021/06/05 07:59:41;;;;;;;;;;;19.20;99.90;;;;;;5050838;28;20323;-83
2021/06/05 08:02:06;;;;;;;;;;;19.30;99.90;;;;;;5026682;28;20330;-84
2021/06/05 08:04:32;;;;;;;;;;;19.20;99.90;;;;;;5035928;28;20368;-84
2021/06/05 08:06:57;;;;;;;;;;;19.20;99.90;;;;;;5044313;28;19905;-86
2021/06/05 08:09:23;;;;;;;;;;;19.20;99.90;;;;;;5051466;28;19908;-85
2021/06/05 08:11:48;;;;;;;;;;;19.10;99.90;;;;;;5053056;28;19909;-85
2021/06/05 08:14:14;;;;;;;;;;;19.20;99.90;;;;;;5051845;28;19905;-86
2021/06/05 08:16:39;;;;;;;;;;;19.20;99.90;;;;;;5031848;28;19913;-85
2021/06/05 08:19:09;;;;;;;;;;;19.20;99.90;;;;;;5022862;28;19913;-84
2021/06/05 08:21:35;;;;;;;;;;;19.30;99.90;;;;;;5038097;28;19940;-85
2021/06/05 08:24:01;;;;;;;;;;;19.40;99.90;;;;;;5051635;28;19948;-84
2021/06/05 08:26:26;;;;;;;;;;;19.50;99.90;;;;;;5052495;28;19911;-85
2021/06/05 08:28:52;;;;;;;;;;;19.50;99.90;;;;;;5049693;28;19996;-85
2021/06/05 08:31:18;;;;;;;;;;;19.50;99.90;;;;;;5051065;28;19908;-85
2021/06/05 08:33:44;;;;;;;;;;;19.60;99.90;;;;;;5051592;28;20368;-85
2021/06/05 08:36:10;;;;;;;;;;;19.60;99.90;;;;;;5051379;28;19944;-85
2021/06/05 08:38:36;;;;;;;;;;;19.60;99.90;;;;;;5054804;28;19950;-85
2021/06/05 08:41:21;;;;;;;;;;;19.60;99.90;;;;;;5055250;28;19948;-85
2021/06/05 08:43:49;;;;;;;;;;;19.60;99.90;;;;;;5061361;28;19927;-85
2021/06/05 08:46:22;;;;;;;;;;;19.70;99.90;;;;;;5055378;28;19904;-85
2021/06/05 08:48:47;;;;;;;;;;;19.70;99.90;;;;;;5061283;28;19939;-85
2021/06/05 08:51:20;;;;;;;;;;;19.70;99.90;;;;;;5056549;28;20357;-85
2021/06/05 08:53:46;;;;;;;;;;;19.70;99.90;;;;;;5052507;28;19905;-85
2021/06/05 08:56:14;;;;;;;;;;;19.60;99.90;;;;;;5056356;28;19911;-75
2021/06/05 08:58:41;;;;;;;;;;;19.50;99.90;;;;;;5055083;28;19908;-75
2021/06/05 09:01:17;;;;;;;;;;;19.50;99.90;;;;;;5053504;28;20088;-75
2021/06/05 09:03:43;;;;;;;;;;;19.50;99.90;;;;;;5049351;28;20349;-75
2021/06/05 09:06:20;;;;;;;;;;;19.40;99.90;;;;;;5056615;28;20011;-75
2021/06/05 09:08:46;;;;;;;;;;;19.20;99.90;;;;;;5056161;28;19970;-77
2021/06/05 09:11:12;;;;;;;;;;;19.10;99.90;;;;;;5054864;28;19940;-75
2021/06/05 09:13:38;;;;;;;;;;;19.00;99.90;;;;;;5054785;28;19908;-75
2021/06/05 09:16:16;;;;;;;;;;;19.00;99.90;;;;;;5055796;28;20277;-75
2021/06/05 09:18:51;;;;;;;;;;;19.10;99.90;;;;;;5054444;28;19909;-76
2021/06/05 09:21:31;;;;;;;;;;;19.20;99.90;;;;;;5054941;28;19904;-75
2021/06/05 09:24:12;;;;;;;;;;;19.30;99.90;;;;;;5055902;28;19904;-76
2021/06/05 09:26:37;;;;;;;;;;;19.30;99.90;;;;;;5053887;28;19923;-75
2021/06/05 09:29:12;;;;;;;;;;;19.30;99.90;;;;;;5054699;28;19909;-76
2021/06/05 09:32:09;;;;;;;;;;;19.30;99.90;;;;;;5055563;28;19911;-75
2021/06/05 09:34:39;;;;;;;;;;;19.20;99.90;;;;;;5032492;28;19912;-76
2021/06/05 09:37:05;;;;;;;;;;;19.10;99.90;;;;;;5056106;28;19923;-75
2021/06/05 09:39:42;;;;;;;;;;;19.20;99.90;;;;;;5054862;28;19905;-75
2021/06/05 09:42:12;;;;;;;;;;;19.30;99.90;;;;;;5054597;28;19931;-76
2021/06/05 09:44:46;;;;;;;;;;;19.40;99.90;;;;;;5055983;28;19962;-76
2021/06/05 09:47:11;;;;;;;;;;;19.60;99.90;;;;;;5054550;28;19905;-76
2021/06/05 09:49:39;;;;;;;;;;;19.70;99.90;;;;;;5053244;28;20425;-76
2021/06/05 09:52:06;;;;;;;;;;;19.70;99.90;;;;;;5054688;28;19919;-76
2021/06/05 09:54:34;;;;;;;;;;;19.70;99.90;;;;;;5055685;28;19904;-76
2021/06/05 09:57:18;;;;;;;;;;;19.60;99.90;;;;;;5054247;28;19905;-76
2021/06/05 09:59:56;;;;;;;;;;;19.50;99.90;;;;;;5054340;28;19905;-76
2021/06/05 10:02:22;;;;;;;;;;;19.50;99.90;;;;;;5054335;28;19905;-75
2021/06/05 10:05:09;;;;;;;;;;;19.20;99.90;;;;;;5055447;28;19932;-76
2021/06/05 10:07:35;;;;;;;;;;;19.00;99.90;;;;;;5055302;28;19909;-76
2021/06/05 10:10:04;;;;;;;;;;;18.80;99.90;;;;;;5054061;28;20349;-76
2021/06/05 10:12:33;;;;;;;;;;;18.60;99.90;;;;;;5053473;28;19931;-76
2021/06/05 10:15:01;;;;;;;;;;;18.50;99.90;;;;;;5053711;28;19931;-75
2021/06/05 10:17:33;;;;;;;;;;;18.50;99.90;;;;;;5055190;28;19905;-75
2021/06/05 10:20:15;;;;;;;;;;;18.40;99.90;;;;;;5054078;28;19915;-77
2021/06/05 10:22:41;;;;;;;;;;;18.40;99.90;;;;;;5053385;28;19920;-76
2021/06/05 10:25:18;;;;;;;;;;;18.40;99.90;;;;;;5055097;28;19931;-76
2021/06/05 10:27:45;;;;;;;;;;;18.30;99.90;;;;;;5054928;28;19908;-77
2021/06/05 10:30:20;;;;;;;;;;;18.30;99.90;;;;;;5054480;28;20277;-76
2021/06/05 10:32:47;;;;;;;;;;;18.20;99.90;;;;;;5053865;28;19955;-78
2021/06/05 10:35:17;;;;;;;;;;;18.10;99.90;;;;;;5053644;28;19943;-77
2021/06/05 10:37:42;;;;;;;;;;;18.00;99.90;;;;;;5053784;28;20260;-78
2021/06/05 10:40:14;;;;;;;;;;;18.00;99.90;;;;;;5054269;28;19916;-76
2021/06/05 10:42:40;;;;;;;;;;;18.10;99.90;;;;;;5054226;28;19909;-76
2021/06/05 10:45:29;;;;;;;;;;;18.20;99.90;;;;;;5053172;28;19931;-77
2021/06/05 10:48:01;;;;;;;;;;;18.30;99.90;;;;;;5052758;28;19992;-76
2021/06/05 10:50:41;;;;;;;;;;;18.50;99.90;;;;;;5052124;28;19951;-76
2021/06/05 10:53:10;;;;;;;;;;;18.60;99.90;;;;;;5052260;28;20365;-77
2021/06/05 10:55:42;;;;;;;;;;;18.70;99.90;;;;;;5052401;28;19913;-77
2021/06/05 10:58:08;;;;;;;;;;;18.80;99.90;;;;;;5052086;28;20307;-77
2021/06/05 11:00:42;;;;;;;;;;;18.80;99.90;;;;;;5051816;28;19916;-76
2021/06/05 11:03:30;;;;;;;;;;;18.90;99.90;;;;;;5052401;28;19924;-86
2021/06/05 11:06:10;;;;;;;;;;;19.00;99.90;;;;;;5052245;28;19913;-86
2021/06/05 11:08:41;;;;;;;;;;;19.20;99.90;;;;;;5060783;28;19912;-86
2021/06/05 11:11:06;;;;;;;;;;;19.30;99.90;;;;;;5053402;28;19927;-85
2021/06/05 11:13:32;;;;;;;;;;;19.20;99.90;;;;;;5050086;28;19988;-86
2021/06/05 11:15:59;;;;;;;;;;;19.30;99.90;;;;;;5036295;28;19962;-86
2021/06/05 11:18:27;;;;;;;;;;;19.30;99.90;;;;;;5060161;28;19897;-85
2021/06/05 11:20:53;;;;;;;;;;;19.40;99.90;;;;;;5079654;28;19927;-85
2021/06/05 11:23:20;;;;;;;;;;;19.30;99.90;;;;;;5076554;28;19896;-85
2021/06/05 11:25:49;;;;;;;;;;;19.30;99.90;;;;;;5078625;28;19893;-85
2021/06/05 11:28:23;;;;;;;;;;;19.30;99.90;;;;;;5079001;28;19939;-86
2021/06/05 11:30:49;;;;;;;;;;;19.40;99.90;;;;;;5060036;28;19978;-87
2021/06/05 11:33:33;;;;;;;;;;;19.50;99.90;;;;;;5052961;28;20294;-87
2021/06/05 11:36:00;;;;;;;;;;;19.40;99.90;;;;;;5052975;28;19991;-86
2021/06/05 11:38:26;;;;;;;;;;;19.20;99.90;;;;;;5054029;28;19936;-86
2021/06/05 11:40:54;;;;;;;;;;;19.20;99.90;;;;;;5035985;28;19924;-86
2021/06/05 11:43:29;;;;;;;;;;;19.20;99.90;;;;;;5052609;28;19905;-86
2021/06/05 11:45:54;;;;;;;;;;;19.30;99.90;;;;;;5053564;28;19932;-86
2021/06/05 11:48:35;;;;;;;;;;;19.30;99.90;;;;;;5052465;28;20273;-86
2021/06/05 11:51:19;;;;;;;;;;;19.30;99.90;;;;;;5053858;28;19905;-86
2021/06/05 11:53:46;;;;;;;;;;;19.20;99.90;;;;;;5052592;28;19904;-86
2021/06/05 11:56:12;;;;;;;;;;;19.20;99.90;;;;;;5051887;28;20332;-81
2021/06/05 11:58:38;;;;;;;;;;;19.20;99.90;;;;;;5053085;28;19944;-86
2021/06/05 12:01:05;;;;;;;;;;;19.30;99.90;;;;;;5053291;28;20345;-83
2021/06/05 12:03:40;;;;;;;;;;;19.40;99.90;;;;;;5051802;28;19920;-83
2021/06/05 12:06:11;;;;;;;;;;;19.50;99.90;;;;;;5051437;28;19908;-83
2021/06/05 12:08:36;;;;;;;;;;;19.40;99.90;;;;;;5050280;28;20430;-83
2021/06/05 12:11:14;;;;;;;;;;;19.40;99.90;;;;;;5051629;28;19908;-83
2021/06/05 12:13:40;;;;;;;;;;;19.40;99.90;;;;;;5048394;28;19931;-83
2021/06/05 12:16:06;;;;;;;;;;;19.40;99.90;;;;;;5052750;28;19904;-83
2021/06/05 12:18:31;;;;;;;;;;;19.40;99.90;;;;;;5051123;28;20414;-83
2021/06/05 12:20:59;;;;;;;;;;;19.40;99.90;;;;;;5051354;28;20134;-84
2021/06/05 12:23:52;;;;;;;;;;;19.40;99.90;;;;;;5051214;28;19930;-82
2021/06/05 12:26:22;;;;;;;;;;;19.30;99.90;;;;;;5052371;28;19991;-83
2021/06/05 12:28:49;;;;;;;;;;;19.40;99.90;;;;;;5052679;28;19912;-83
2021/06/05 12:31:27;;;;;;;;;;;19.50;99.90;;;;;;5051412;28;19904;-82
2021/06/05 12:34:12;;;;;;;;;;;19.60;99.90;;;;;;5052877;28;19905;-84
2021/06/05 12:36:40;;;;;;;;;;;19.60;99.90;;;;;;5049046;28;20054;-84
2021/06/05 12:39:18;;;;;;;;;;;19.70;99.90;;;;;;5051562;28;20380;-84
2021/06/05 12:41:45;;;;;;;;;;;19.70;99.90;;;;;;5051824;28;19947;-84
2021/06/05 12:44:21;;;;;;;;;;;19.60;99.90;;;;;;5051100;28;19904;-85
2021/06/05 12:46:47;;;;;;;;;;;19.70;99.90;;;;;;5052259;28;20384;-85
2021/06/05 12:49:16;;;;;;;;;;;19.60;99.90;;;;;;5052086;28;19920;-83
2021/06/05 12:51:50;;;;;;;;;;;19.60;99.90;;;;;;5051410;28;20316;-84
2021/06/05 12:54:34;;;;;;;;;;;19.60;99.90;;;;;;5052647;28;19905;-84
2021/06/05 12:57:18;;;;;;;;;;;19.70;99.90;;;;;;5049881;28;19912;-84
2021/06/05 12:59:43;;;;;;;;;;;19.80;99.90;;;;;;5049165;28;20008;-84
2021/06/05 13:02:19;;;;;;;;;;;19.80;99.90;;;;;;5051225;28;20007;-82
2021/06/05 13:04:45;;;;;;;;;;;19.80;99.90;;;;;;5049339;28;19905;-83
2021/06/05 13:07:11;;;;;;;;;;;19.70;99.90;;;;;;5051208;28;19905;-83
2021/06/05 13:09:36;;;;;;;;;;;19.80;99.90;;;;;;5052504;28;19905;-84
2021/06/05 13:12:04;;;;;;;;;;;19.90;99.90;;;;;;5044415;28;20328;-83
2021/06/05 13:14:29;;;;;;;;;;;20.10;99.90;;;;;;5041029;28;19979;-81
2021/06/05 13:17:09;;;;;;;;;;;20.20;99.90;;;;;;5046770;28;20356;-82
2021/06/05 13:19:35;;;;;;;;;;;20.20;99.90;;;;;;5041501;28;20295;-84
2021/06/05 13:22:12;;;;;;;;;;;20.20;99.90;;;;;;5042764;28;19905;-81
2021/06/05 13:24:38;;;;;;;;;;;20.20;99.90;;;;;;5047728;28;20380;-83
2021/06/05 13:27:20;;;;;;;;;;;20.20;99.90;;;;;;5033978;28;20295;-82
2021/06/05 13:29:49;;;;;;;;;;;20.10;99.90;;;;;;5050760;28;19957;-82
2021/06/05 13:32:24;;;;;;;;;;;19.90;99.90;;;;;;5040258;28;20345;-82
2021/06/05 13:34:49;;;;;;;;;;;19.90;99.90;;;;;;5061543;28;19966;-83
2021/06/05 13:37:17;;;;;;;;;;;19.80;99.90;;;;;;5047720;28;19912;-81
2021/06/05 13:39:43;;;;;;;;;;;19.70;99.90;;;;;;5054452;28;19927;-83
2021/06/05 13:42:09;;;;;;;;;;;19.70;99.90;;;;;;5055182;28;20357;-82
2021/06/05 13:44:36;;;;;;;;;;;19.50;99.90;;;;;;5055207;28;20357;-82
2021/06/05 13:47:01;;;;;;;;;;;19.50;99.90;;;;;;5045969;28;19908;-83
2021/06/05 13:49:27;;;;;;;;;;;19.40;99.90;;;;;;5055607;28;19935;-86
2021/06/05 13:51:52;;;;;;;;;;;19.40;99.90;;;;;;5070630;28;20280;-83
2021/06/05 13:54:17;;;;;;;;;;;19.40;99.90;;;;;;5055238;28;20272;-84
2021/06/05 13:56:43;;;;;;;;;;;19.40;99.90;;;;;;5052574;28;20269;-84
2021/06/05 13:59:08;;;;;;;;;;;19.30;99.90;;;;;;5054817;28;19904;-83
2021/06/05 14:01:34;;;;;;;;;;;19.30;99.90;;;;;;5053291;28;20376;-83
2021/06/05 14:04:01;;;;;;;;;;;19.30;99.90;;;;;;5054185;28;19905;-83
2021/06/05 14:06:27;;;;;;;;;;;19.30;99.90;;;;;;5055346;28;19958;-82
2021/06/05 14:08:52;;;;;;;;;;;19.30;99.90;;;;;;5055178;28;19909;-82
2021/06/05 14:11:18;;;;;;;;;;;19.30;99.90;;;;;;5037026;28;20676;-82
2021/06/05 14:13:46;;;;;;;;;;;19.30;99.90;;;;;;5034189;28;19909;-81
2021/06/05 14:16:11;;;;;;;;;;;19.20;99.90;;;;;;5033965;28;19909;-83
2021/06/05 14:18:37;;;;;;;;;;;19.20;99.90;;;;;;5037752;28;20418;-83
2021/06/05 14:21:04;;;;;;;;;;;19.10;99.90;;;;;;5049242;28;19905;-83
2021/06/05 14:23:30;;;;;;;;;;;19.00;99.90;;;;;;5028361;28;19958;-83